createdAt,value
2024-01-17T00:00:14.250Z,85.38
2024-01-17T00:01:14.224Z,85.60
2024-01-17T00:02:14.161Z,85.91
2024-01-17T00:03:14.252Z,85.13
2024-01-17T00:04:14.134Z,85.35
2024-01-17T00:05:14.134Z,85.45
2024-01-17T00:06:14.193Z,84.75
2024-01-17T00:07:14.230Z,85.03
2024-01-17T00:08:14.118Z,85.13
2024-01-17T00:09:14.112Z,84.82
2024-01-17T00:10:14.086Z,84.50
2024-01-17T00:11:14.120Z,84.92
2024-01-17T00:12:14.181Z,85.07
2024-01-17T00:13:14.063Z,85.63
2024-01-17T00:14:14.082Z,86.02
2024-01-17T00:15:14.072Z,85.85
2024-01-17T00:16:14.075Z,85.42
2024-01-17T00:17:14.082Z,85.31
2024-01-17T00:18:14.144Z,85.49
2024-01-17T00:19:14.222Z,85.17
2024-01-17T00:20:14.043Z,85.07
2024-01-17T00:21:14.013Z,85.13
2024-01-17T00:22:14.036Z,84.92
2024-01-17T00:23:14.036Z,84.50
2024-01-17T00:24:14.027Z,83.98
2024-01-17T00:25:13.997Z,84.29
2024-01-17T00:26:13.991Z,84.29
2024-01-17T00:27:14.005Z,84.19
2024-01-17T00:28:14.019Z,82.92
2024-01-17T00:29:13.986Z,84.12
2024-01-17T00:30:14.101Z,84.86
2024-01-17T00:31:14.000Z,85.21
2024-01-17T00:32:13.990Z,85.11
2024-01-17T00:33:14.088Z,85.36
2024-01-17T00:34:14.090Z,85.21
2024-01-17T00:35:13.992Z,85.42
2024-01-17T00:36:14.026Z,85.57
2024-01-17T00:37:13.957Z,85.36
2024-01-17T00:38:13.989Z,85.14
2024-01-17T00:39:14.030Z,85.36
2024-01-17T00:40:13.927Z,85.46
2024-01-17T00:41:13.936Z,85.78
2024-01-17T00:42:13.945Z,85.99
2024-01-17T00:43:13.973Z,85.92
2024-01-17T00:44:13.930Z,86.24
2024-01-17T00:45:13.992Z,86.13
2024-01-17T00:46:13.918Z,86.87
2024-01-17T00:47:14.058Z,86.24
2024-01-17T00:48:13.978Z,86.10
2024-01-17T00:49:13.909Z,84.89
2024-01-17T00:50:13.873Z,84.69
2024-01-17T00:51:13.986Z,85.11
2024-01-17T00:52:13.887Z,85.00
2024-01-17T00:53:13.873Z,84.72
2024-01-17T00:54:13.873Z,84.72
2024-01-17T00:55:13.869Z,85.46
2024-01-17T00:56:13.829Z,85.04
2024-01-17T00:57:13.836Z,85.04
2024-01-17T00:58:13.840Z,85.25
2024-01-17T00:59:13.871Z,85.14
2024-01-17T01:00:13.841Z,84.94
2024-01-17T01:01:13.876Z,84.30
2024-01-17T01:02:13.811Z,84.66
2024-01-17T01:03:13.886Z,85.50
2024-01-17T01:04:13.854Z,86.13
2024-01-17T01:05:13.812Z,86.34
2024-01-17T01:06:13.810Z,85.61
2024-01-17T01:07:13.885Z,85.82
2024-01-17T01:08:13.807Z,86.38
2024-01-17T01:09:13.978Z,86.59
2024-01-17T01:10:13.791Z,87.29
2024-01-17T01:11:13.796Z,87.33
2024-01-17T01:12:13.804Z,86.55
2024-01-17T01:13:13.819Z,86.17
2024-01-17T01:14:13.791Z,86.13
2024-01-17T01:15:13.792Z,86.30
2024-01-17T01:16:13.758Z,85.31
2024-01-17T01:17:13.732Z,85.14
2024-01-17T01:18:13.936Z,84.52
2024-01-17T01:19:13.853Z,84.52
2024-01-17T01:20:13.744Z,84.23
2024-01-17T01:21:13.722Z,85.14
2024-01-17T01:22:13.705Z,85.08
2024-01-17T01:23:13.816Z,85.50
2024-01-17T01:24:13.748Z,85.39
2024-01-17T01:25:13.716Z,85.61
2024-01-17T01:26:13.703Z,85.75
2024-01-17T01:27:13.792Z,86.38
2024-01-17T01:28:13.728Z,86.80
2024-01-17T01:29:13.683Z,86.49
2024-01-17T01:30:13.809Z,86.07
2024-01-17T01:31:13.716Z,86.77
2024-01-17T01:32:13.657Z,86.34
2024-01-17T01:33:13.765Z,86.41
2024-01-17T01:34:16.327Z,84.94
2024-01-17T01:35:14.710Z,84.30
2024-01-17T01:36:13.710Z,84.05
2024-01-17T01:37:13.648Z,83.36
2024-01-17T01:38:13.657Z,83.36
2024-01-17T01:39:13.750Z,83.46
2024-01-17T01:40:13.665Z,83.88
2024-01-17T01:41:13.677Z,84.52
2024-01-17T01:42:13.698Z,84.30
2024-01-17T01:43:13.636Z,84.62
2024-01-17T01:44:13.636Z,84.30
2024-01-17T01:45:13.694Z,84.20
2024-01-17T01:46:13.640Z,84.20
2024-01-17T01:47:13.625Z,83.98
2024-01-17T01:48:13.685Z,84.20
2024-01-17T01:49:13.817Z,83.67
2024-01-17T01:50:13.619Z,84.09
2024-01-17T01:51:13.647Z,84.09
2024-01-17T01:52:13.576Z,83.78
2024-01-17T01:53:13.580Z,83.88
2024-01-17T01:54:13.635Z,83.85
2024-01-17T01:55:13.682Z,84.27
2024-01-17T01:56:13.583Z,84.80
2024-01-17T01:57:13.614Z,85.11
2024-01-17T01:58:13.543Z,85.29
2024-01-17T01:59:13.549Z,85.01
2024-01-17T02:00:13.598Z,85.22
2024-01-17T02:01:13.605Z,85.75
2024-01-17T02:02:13.561Z,85.58
2024-01-17T02:03:13.588Z,85.79
2024-01-17T02:04:13.614Z,86.21
2024-01-17T02:05:13.590Z,86.32
2024-01-17T02:06:13.600Z,85.85
2024-01-17T02:07:13.521Z,85.75
2024-01-17T02:08:13.534Z,85.85
2024-01-17T02:09:13.524Z,86.00
2024-01-17T02:10:13.521Z,86.63
2024-01-17T02:11:13.608Z,86.32
2024-01-17T02:12:13.549Z,86.17
2024-01-17T02:13:13.504Z,86.07
2024-01-17T02:14:13.501Z,85.22
2024-01-17T02:15:13.546Z,85.75
2024-01-17T02:16:13.501Z,85.50
2024-01-17T02:17:13.474Z,85.04
2024-01-17T02:18:13.533Z,84.52
2024-01-17T02:19:13.495Z,84.30
2024-01-17T02:20:13.497Z,83.84
2024-01-17T02:21:13.542Z,83.14
2024-01-17T02:22:13.442Z,83.04
2024-01-17T02:23:13.449Z,83.71
2024-01-17T02:24:13.452Z,83.81
2024-01-17T02:25:13.425Z,84.59
2024-01-17T02:26:13.447Z,84.59
2024-01-17T02:27:13.550Z,84.63
2024-01-17T02:28:13.433Z,84.94
2024-01-17T02:29:13.427Z,85.11
2024-01-17T02:30:13.542Z,85.11
2024-01-17T02:31:13.508Z,84.80
2024-01-17T02:32:13.372Z,84.59
2024-01-17T02:33:13.506Z,84.31
2024-01-17T02:34:13.589Z,84.84
2024-01-17T02:35:13.392Z,85.79
2024-01-17T02:36:13.538Z,86.57
2024-01-17T02:37:13.359Z,86.42
2024-01-17T02:38:13.352Z,86.74
2024-01-17T02:39:13.460Z,86.91
2024-01-17T02:40:13.391Z,86.28
2024-01-17T02:41:13.369Z,85.22
2024-01-17T02:42:13.483Z,84.48
2024-01-17T02:43:13.346Z,84.38
2024-01-17T02:44:13.346Z,84.84
2024-01-17T02:45:13.418Z,85.05
2024-01-17T02:46:13.337Z,85.22
2024-01-17T02:47:13.336Z,85.01
2024-01-17T02:48:13.391Z,84.80
2024-01-17T02:49:13.377Z,85.01
2024-01-17T02:50:13.306Z,85.11
2024-01-17T02:51:13.374Z,84.91
2024-01-17T02:52:13.342Z,84.59
2024-01-17T02:53:13.304Z,84.38
2024-01-17T02:54:13.289Z,84.34
2024-01-17T02:55:13.300Z,84.69
2024-01-17T02:56:13.282Z,84.59
2024-01-17T02:57:13.350Z,84.94
2024-01-17T02:58:13.301Z,85.47
2024-01-17T02:59:13.357Z,86.00
2024-01-17T03:00:13.349Z,85.85
2024-01-17T03:01:13.310Z,85.05
2024-01-17T03:02:13.254Z,84.84
2024-01-17T03:03:13.349Z,85.68
2024-01-17T03:04:13.251Z,86.15
2024-01-17T03:05:13.278Z,86.60
2024-01-17T03:06:13.377Z,86.99
2024-01-17T03:07:13.275Z,86.35
2024-01-17T03:08:13.231Z,86.42
2024-01-17T03:09:13.313Z,86.21
2024-01-17T03:10:13.261Z,85.89
2024-01-17T03:11:13.237Z,85.54
2024-01-17T03:12:13.243Z,85.33
2024-01-17T03:13:13.220Z,84.48
2024-01-17T03:14:13.208Z,84.34
2024-01-17T03:15:13.310Z,83.29
2024-01-17T03:16:13.217Z,83.22
2024-01-17T03:17:13.201Z,82.90
2024-01-17T03:18:13.284Z,84.06
2024-01-17T03:19:13.361Z,84.17
2024-01-17T03:20:13.167Z,84.06
2024-01-17T03:21:13.198Z,83.53
2024-01-17T03:22:13.200Z,83.85
2024-01-17T03:23:13.191Z,84.10
2024-01-17T03:24:13.188Z,84.74
2024-01-17T03:25:13.136Z,84.80
2024-01-17T03:26:13.153Z,84.80
2024-01-17T03:27:13.168Z,84.69
2024-01-17T03:28:13.184Z,84.48
2024-01-17T03:29:13.129Z,84.34
2024-01-17T03:30:13.464Z,83.64
2024-01-17T03:31:13.268Z,83.75
2024-01-17T03:32:13.148Z,84.02
2024-01-17T03:33:13.203Z,83.71
2024-01-17T03:34:13.174Z,83.39
2024-01-17T03:35:13.108Z,83.29
2024-01-17T03:36:13.322Z,83.04
2024-01-17T03:37:13.086Z,82.30
2024-01-17T03:38:13.100Z,82.65
2024-01-17T03:39:13.119Z,83.04
2024-01-17T03:40:13.106Z,82.30
2024-01-17T03:41:13.127Z,82.65
2024-01-17T03:42:13.093Z,83.07
2024-01-17T03:43:13.099Z,82.34
2024-01-17T03:44:13.070Z,83.07
2024-01-17T03:45:13.056Z,82.65
2024-01-17T03:46:13.062Z,82.34
2024-01-17T03:47:13.160Z,82.86
2024-01-17T03:48:13.149Z,82.17
2024-01-17T03:49:13.201Z,82.93
2024-01-17T03:50:13.028Z,83.04
2024-01-17T03:51:13.084Z,82.34
2024-01-17T03:52:13.074Z,82.13
2024-01-17T03:53:13.042Z,82.23
2024-01-17T03:54:13.077Z,82.23
2024-01-17T03:55:13.063Z,81.70
2024-01-17T03:56:13.032Z,81.95
2024-01-17T03:57:13.095Z,83.43
2024-01-17T03:58:13.029Z,83.75
2024-01-17T03:59:12.987Z,83.64
2024-01-17T04:00:13.063Z,83.95
2024-01-17T04:01:13.066Z,83.50
2024-01-17T04:02:13.001Z,83.39
2024-01-17T04:03:13.193Z,83.29
2024-01-17T04:04:12.997Z,83.81
2024-01-17T04:05:13.012Z,83.75
2024-01-17T04:06:13.025Z,83.71
2024-01-17T04:07:13.032Z,84.02
2024-01-17T04:08:12.932Z,82.86
2024-01-17T04:09:13.020Z,82.76
2024-01-17T04:10:12.931Z,82.44
2024-01-17T04:11:12.944Z,83.85
2024-01-17T04:12:12.964Z,83.75
2024-01-17T04:13:12.972Z,84.06
2024-01-17T04:14:12.966Z,83.95
2024-01-17T04:15:13.135Z,84.27
2024-01-17T04:16:12.933Z,84.48
2024-01-17T04:17:12.937Z,84.69
2024-01-17T04:18:13.074Z,84.17
2024-01-17T04:19:13.118Z,83.92
2024-01-17T04:20:12.912Z,83.18
2024-01-17T04:21:13.966Z,83.22
2024-01-17T04:22:12.916Z,83.75
2024-01-17T04:23:12.925Z,84.27
2024-01-17T04:24:12.934Z,83.71
2024-01-17T04:25:13.491Z,83.07
2024-01-17T04:26:12.880Z,82.23
2024-01-17T04:27:13.009Z,82.86
2024-01-17T04:28:12.925Z,82.02
2024-01-17T04:29:12.854Z,81.81
2024-01-17T04:30:13.033Z,81.46
2024-01-17T04:31:12.871Z,80.86
2024-01-17T04:32:12.842Z,81.32
2024-01-17T04:33:12.892Z,82.06
2024-01-17T04:34:12.949Z,83.08
2024-01-17T04:35:12.827Z,83.93
2024-01-17T04:36:12.842Z,84.45
2024-01-17T04:37:12.803Z,84.20
2024-01-17T04:38:12.800Z,83.89
2024-01-17T04:39:13.172Z,83.11
2024-01-17T04:40:12.783Z,83.33
2024-01-17T04:41:12.769Z,83.01
2024-01-17T04:42:12.872Z,83.01
2024-01-17T04:43:12.808Z,83.11
2024-01-17T04:44:12.807Z,83.43
2024-01-17T04:45:12.774Z,82.76
2024-01-17T04:46:12.772Z,82.97
2024-01-17T04:47:12.720Z,81.56
2024-01-17T04:48:12.959Z,80.82
2024-01-17T04:49:12.895Z,80.93
2024-01-17T04:50:12.849Z,81.92
2024-01-17T04:51:13.915Z,80.69
2024-01-17T04:52:13.711Z,81.81
2024-01-17T04:53:12.701Z,81.43
2024-01-17T04:54:12.727Z,81.49
2024-01-17T04:55:12.710Z,81.18
2024-01-17T04:56:12.778Z,81.81
2024-01-17T04:57:12.680Z,81.92
2024-01-17T04:58:12.674Z,81.95
2024-01-17T04:59:12.701Z,81.53
2024-01-17T05:00:12.713Z,83.01
2024-01-17T05:01:12.696Z,83.43
2024-01-17T05:02:12.694Z,83.53
2024-01-17T05:03:12.748Z,83.64
2024-01-17T05:04:12.649Z,84.00
2024-01-17T05:05:12.800Z,84.20
2024-01-17T05:06:12.786Z,84.63
2024-01-17T05:07:12.748Z,84.56
2024-01-17T05:08:12.671Z,84.74
2024-01-17T05:09:12.634Z,84.84
2024-01-17T05:10:12.646Z,85.16
2024-01-17T05:11:12.611Z,85.05
2024-01-17T05:12:12.975Z,85.72
2024-01-17T05:13:13.623Z,85.83
2024-01-17T05:14:12.630Z,84.88
2024-01-17T05:15:12.605Z,84.98
2024-01-17T05:16:12.601Z,85.02
2024-01-17T05:17:12.626Z,85.44
2024-01-17T05:18:12.728Z,85.76
2024-01-17T05:19:16.092Z,85.72
2024-01-17T05:20:12.579Z,86.35
2024-01-17T05:21:12.607Z,86.35
2024-01-17T05:22:12.582Z,86.32
2024-01-17T05:23:13.662Z,85.68
2024-01-17T05:24:12.656Z,85.43
2024-01-17T05:25:12.559Z,85.36
2024-01-17T05:26:12.552Z,84.80
2024-01-17T05:27:12.575Z,84.80
2024-01-17T05:28:12.560Z,84.27
2024-01-17T05:29:12.568Z,83.18
2024-01-17T05:30:15.967Z,83.01
2024-01-17T05:31:13.603Z,83.75
2024-01-17T05:32:12.519Z,83.95
2024-01-17T05:33:12.544Z,84.20
2024-01-17T05:34:12.616Z,84.74
2024-01-17T05:35:12.487Z,84.74
2024-01-17T05:36:12.549Z,84.59
2024-01-17T05:37:12.521Z,84.00
2024-01-17T05:38:12.491Z,84.00
2024-01-17T05:39:12.633Z,84.06
2024-01-17T05:40:12.468Z,83.53
2024-01-17T05:41:12.505Z,83.53
2024-01-17T05:42:12.578Z,83.22
2024-01-17T05:43:12.448Z,83.85
2024-01-17T05:44:15.507Z,83.53
2024-01-17T05:45:13.567Z,83.75
2024-01-17T05:46:12.478Z,83.85
2024-01-17T05:47:12.453Z,84.17
2024-01-17T05:48:12.532Z,84.74
2024-01-17T05:49:12.529Z,84.31
2024-01-17T05:50:12.424Z,84.52
2024-01-17T05:51:12.523Z,84.74
2024-01-17T05:52:12.464Z,84.74
2024-01-17T05:53:12.403Z,84.91
2024-01-17T05:54:12.485Z,85.01
2024-01-17T05:55:12.406Z,84.38
2024-01-17T05:56:12.421Z,84.69
2024-01-17T05:57:12.396Z,84.38
2024-01-17T05:58:12.399Z,84.02
2024-01-17T05:59:12.374Z,83.60
2024-01-17T06:00:12.624Z,83.92
2024-01-17T06:01:12.438Z,83.36
2024-01-17T06:02:12.371Z,83.25
2024-01-17T06:03:12.415Z,83.14
2024-01-17T06:04:12.382Z,82.30
2024-01-17T06:05:12.377Z,82.23
2024-01-17T06:06:12.382Z,83.04
2024-01-17T06:07:12.495Z,82.34
2024-01-17T06:08:12.318Z,82.51
2024-01-17T06:09:12.345Z,82.30
2024-01-17T06:10:12.341Z,82.82
2024-01-17T06:11:12.450Z,82.37
2024-01-17T06:12:12.361Z,82.40
2024-01-17T06:13:12.310Z,82.40
2024-01-17T06:14:14.760Z,82.09
2024-01-17T06:15:12.309Z,82.40
2024-01-17T06:16:12.309Z,82.62
2024-01-17T06:17:12.347Z,82.40
2024-01-17T06:18:12.380Z,81.95
2024-01-17T06:19:12.337Z,82.09
2024-01-17T06:20:12.278Z,82.76
2024-01-17T06:21:12.354Z,83.11
2024-01-17T06:22:12.293Z,84.17
2024-01-17T06:23:12.322Z,84.80
2024-01-17T06:24:12.307Z,84.91
2024-01-17T06:25:12.253Z,85.47
2024-01-17T06:26:12.267Z,85.75
2024-01-17T06:27:12.326Z,85.64
2024-01-17T06:28:12.233Z,85.96
2024-01-17T06:29:12.255Z,85.29
2024-01-17T06:30:12.337Z,84.66
2024-01-17T06:31:12.325Z,84.66
2024-01-17T06:32:12.234Z,83.98
2024-01-17T06:33:12.305Z,83.78
2024-01-17T06:34:12.367Z,83.67
2024-01-17T06:35:12.213Z,83.78
2024-01-17T06:36:12.295Z,83.78
2024-01-17T06:37:12.603Z,83.73
2024-01-17T06:38:12.175Z,83.00
2024-01-17T06:39:12.249Z,82.89
2024-01-17T06:40:12.261Z,83.00
2024-01-17T06:41:12.168Z,83.28
2024-01-17T06:42:12.314Z,83.11
2024-01-17T06:43:12.167Z,83.81
2024-01-17T06:44:12.151Z,83.91
2024-01-17T06:45:12.410Z,83.11
2024-01-17T06:46:12.162Z,83.56
2024-01-17T06:47:12.143Z,84.34
2024-01-17T06:48:12.351Z,84.20
2024-01-17T06:49:12.209Z,83.98
2024-01-17T06:50:12.139Z,83.92
2024-01-17T06:51:12.170Z,84.45
2024-01-17T06:52:12.160Z,84.72
2024-01-17T06:53:12.116Z,84.66
2024-01-17T06:54:12.222Z,85.11
2024-01-17T06:55:13.446Z,85.43
2024-01-17T06:56:12.097Z,85.08
2024-01-17T06:57:12.128Z,84.80
2024-01-17T06:58:12.100Z,84.87
2024-01-17T06:59:12.089Z,85.18
2024-01-17T07:00:12.173Z,85.08
2024-01-17T07:01:12.156Z,85.08
2024-01-17T07:02:12.044Z,85.36
2024-01-17T07:03:12.214Z,84.72
2024-01-17T07:04:12.097Z,84.09
2024-01-17T07:05:12.133Z,83.46
2024-01-17T07:06:12.362Z,83.67
2024-01-17T07:07:12.029Z,83.46
2024-01-17T07:08:12.133Z,83.67
2024-01-17T07:09:12.071Z,84.13
2024-01-17T07:10:12.034Z,83.46
2024-01-17T07:11:12.021Z,83.29
2024-01-17T07:12:12.061Z,83.39
2024-01-17T07:13:12.049Z,83.33
2024-01-17T07:14:12.029Z,83.92
2024-01-17T07:15:12.096Z,84.55
2024-01-17T07:16:11.997Z,84.94
2024-01-17T07:17:12.030Z,85.14
2024-01-17T07:18:12.097Z,85.61
2024-01-17T07:19:11.985Z,85.92
2024-01-17T07:20:12.006Z,86.24
2024-01-17T07:21:11.995Z,86.34
2024-01-17T07:22:11.973Z,86.34
2024-01-17T07:23:12.002Z,85.82
2024-01-17T07:24:12.232Z,85.78
2024-01-17T07:25:11.946Z,85.25
2024-01-17T07:26:11.954Z,85.14
2024-01-17T07:27:12.021Z,85.36
2024-01-17T07:28:11.968Z,85.67
2024-01-17T07:29:12.003Z,85.57
2024-01-17T07:30:12.015Z,85.61
2024-01-17T07:31:11.901Z,85.88
2024-01-17T07:32:11.989Z,86.16
2024-01-17T07:33:12.043Z,85.00
2024-01-17T07:34:12.029Z,85.07
2024-01-17T07:35:11.911Z,85.11
2024-01-17T07:36:12.195Z,84.96
2024-01-17T07:37:15.156Z,84.92
2024-01-17T07:38:12.906Z,84.40
2024-01-17T07:39:12.006Z,84.08
2024-01-17T07:40:11.997Z,83.76
2024-01-17T07:41:11.902Z,83.70
2024-01-17T07:42:11.951Z,84.19
2024-01-17T07:43:11.852Z,84.50
2024-01-17T07:44:11.854Z,84.08
2024-01-17T07:45:12.019Z,83.98
2024-01-17T07:46:11.850Z,84.54
2024-01-17T07:47:11.830Z,84.65
2024-01-17T07:48:12.018Z,84.96
2024-01-17T07:49:11.997Z,84.82
2024-01-17T07:50:11.851Z,84.50
2024-01-17T07:51:11.901Z,84.44
2024-01-17T07:52:11.836Z,84.29
2024-01-17T07:53:11.794Z,84.61
2024-01-17T07:54:11.833Z,84.61
2024-01-17T07:55:11.806Z,84.19
2024-01-17T07:56:11.803Z,84.50
2024-01-17T07:57:11.828Z,84.50
2024-01-17T07:58:11.781Z,84.61
2024-01-17T07:59:11.794Z,84.86
2024-01-17T08:00:11.858Z,85.07
2024-01-17T08:01:11.811Z,85.60
2024-01-17T08:02:11.780Z,85.49
2024-01-17T08:03:11.906Z,86.54
2024-01-17T08:04:11.818Z,86.54
2024-01-17T08:05:11.802Z,85.66
2024-01-17T08:06:11.790Z,85.03
2024-01-17T08:07:11.811Z,84.99
2024-01-17T08:08:11.721Z,84.78
2024-01-17T08:09:11.808Z,84.78
2024-01-17T08:10:11.718Z,84.89
2024-01-17T08:11:11.731Z,85.10
2024-01-17T08:12:11.735Z,85.35
2024-01-17T08:13:11.715Z,85.35
2024-01-17T08:14:11.732Z,86.22
2024-01-17T08:15:11.762Z,86.40
2024-01-17T08:16:11.741Z,86.29
2024-01-17T08:17:11.733Z,85.97
2024-01-17T08:18:11.838Z,85.62
2024-01-17T08:19:11.819Z,85.73
2024-01-17T08:20:11.741Z,85.69
2024-01-17T08:21:11.779Z,85.27
2024-01-17T08:22:11.654Z,85.31
2024-01-17T08:23:11.676Z,85.62
2024-01-17T08:24:11.740Z,85.90
2024-01-17T08:25:11.683Z,86.00
2024-01-17T08:26:11.685Z,85.48
2024-01-17T08:27:11.660Z,85.37
2024-01-17T08:28:11.647Z,85.55
2024-01-17T08:29:11.820Z,86.04
2024-01-17T08:30:12.103Z,86.36
2024-01-17T08:31:11.626Z,86.15
2024-01-17T08:32:11.650Z,85.94
2024-01-17T08:33:11.678Z,86.99
2024-01-17T08:34:11.822Z,86.78
2024-01-17T08:35:11.680Z,86.43
2024-01-17T08:36:11.661Z,86.38
2024-01-17T08:37:11.613Z,85.44
2024-01-17T08:38:11.605Z,85.40
2024-01-17T08:39:11.663Z,84.98
2024-01-17T08:40:11.596Z,85.08
2024-01-17T08:41:11.584Z,85.05
2024-01-17T08:42:11.734Z,84.77
2024-01-17T08:43:11.559Z,84.52
2024-01-17T08:44:11.576Z,84.31
2024-01-17T08:45:11.785Z,84.10
2024-01-17T08:46:11.563Z,84.10
2024-01-17T08:47:11.679Z,83.86
2024-01-17T08:48:11.623Z,83.86
2024-01-17T08:49:11.609Z,83.40
2024-01-17T08:50:11.537Z,82.98
2024-01-17T08:51:11.632Z,82.66
2024-01-17T08:52:11.534Z,83.22
2024-01-17T08:53:11.541Z,82.98
2024-01-17T08:54:11.683Z,83.50
2024-01-17T08:55:11.528Z,83.01
2024-01-17T08:56:11.530Z,83.01
2024-01-17T08:57:12.547Z,83.33
2024-01-17T08:58:11.517Z,83.44
2024-01-17T08:59:11.541Z,82.91
2024-01-17T09:00:11.532Z,83.37
2024-01-17T09:01:11.578Z,83.89
2024-01-17T09:02:11.495Z,83.68
2024-01-17T09:03:11.522Z,83.96
2024-01-17T09:04:11.489Z,83.44
2024-01-17T09:05:11.522Z,83.75
2024-01-17T09:06:11.504Z,83.54
2024-01-17T09:07:11.527Z,83.01
2024-01-17T09:08:11.572Z,83.64
2024-01-17T09:09:11.538Z,83.75
2024-01-17T09:10:11.454Z,83.96
2024-01-17T09:11:11.463Z,83.75
2024-01-17T09:12:11.457Z,83.79
2024-01-17T09:13:11.544Z,84.59
2024-01-17T09:14:11.441Z,84.69
2024-01-17T09:15:11.445Z,84.23
2024-01-17T09:16:11.387Z,83.50
2024-01-17T09:17:11.414Z,84.09
2024-01-17T09:18:11.450Z,83.71
2024-01-17T09:19:11.511Z,84.09
2024-01-17T09:20:11.465Z,84.20
2024-01-17T09:21:11.405Z,83.74
2024-01-17T09:22:11.364Z,83.25
2024-01-17T09:23:11.431Z,82.42
2024-01-17T09:24:11.416Z,82.62
2024-01-17T09:25:11.378Z,82.20
2024-01-17T09:26:11.338Z,82.42
2024-01-17T09:27:11.492Z,82.42
2024-01-17T09:28:11.368Z,82.94
2024-01-17T09:29:11.418Z,82.90
2024-01-17T09:30:11.367Z,82.62
2024-01-17T09:31:11.334Z,83.04
2024-01-17T09:32:15.344Z,82.94
2024-01-17T09:33:12.520Z,82.79
2024-01-17T09:34:11.398Z,83.22
2024-01-17T09:35:11.297Z,83.04
2024-01-17T09:36:11.354Z,83.25
2024-01-17T09:37:11.325Z,83.36
2024-01-17T09:38:11.294Z,83.32
2024-01-17T09:39:11.525Z,83.47
2024-01-17T09:40:11.331Z,83.64
2024-01-17T09:41:11.374Z,83.42
2024-01-17T09:42:11.359Z,82.59
2024-01-17T09:43:12.893Z,83.47
2024-01-17T09:44:12.268Z,83.64
2024-01-17T09:45:11.431Z,82.48
2024-01-17T09:46:11.287Z,83.15
2024-01-17T09:47:11.283Z,83.15
2024-01-17T09:48:11.331Z,83.67
2024-01-17T09:49:11.649Z,84.20
2024-01-17T09:50:11.315Z,83.67
2024-01-17T09:51:11.357Z,83.67
2024-01-17T09:52:11.270Z,84.20
2024-01-17T09:53:11.264Z,84.41
2024-01-17T09:54:12.758Z,84.09
2024-01-17T09:55:11.248Z,84.30
2024-01-17T09:56:11.228Z,84.51
2024-01-17T09:57:11.285Z,84.62
2024-01-17T09:58:11.218Z,84.62
2024-01-17T09:59:11.209Z,84.93
2024-01-17T10:00:12.986Z,85.31
2024-01-17T10:01:11.250Z,85.00
2024-01-17T10:02:11.214Z,84.68
2024-01-17T10:03:11.280Z,84.68
2024-01-17T10:04:11.224Z,84.33
2024-01-17T10:05:11.213Z,83.81
2024-01-17T10:06:11.265Z,83.91
2024-01-17T10:07:11.169Z,83.81
2024-01-17T10:08:12.177Z,83.49
2024-01-17T10:09:11.333Z,83.81
2024-01-17T10:10:11.170Z,83.91
2024-01-17T10:11:11.198Z,84.01
2024-01-17T10:12:11.178Z,84.29
2024-01-17T10:13:11.146Z,83.87
2024-01-17T10:14:11.130Z,83.52
2024-01-17T10:15:11.194Z,83.14
2024-01-17T10:16:11.187Z,82.40
2024-01-17T10:17:11.135Z,83.35
2024-01-17T10:18:11.207Z,83.35
2024-01-17T10:19:11.319Z,82.93
2024-01-17T10:20:11.179Z,82.47
2024-01-17T10:21:11.238Z,81.43
2024-01-17T10:22:11.119Z,81.43
2024-01-17T10:23:11.101Z,81.53
2024-01-17T10:24:11.110Z,81.57
2024-01-17T10:25:11.084Z,82.06
2024-01-17T10:26:11.065Z,82.06
2024-01-17T10:27:11.188Z,82.06
2024-01-17T10:28:11.050Z,81.43
2024-01-17T10:29:11.050Z,81.63
2024-01-17T10:30:11.063Z,81.29
2024-01-17T10:31:11.041Z,81.60
2024-01-17T10:32:11.096Z,81.92
2024-01-17T10:33:11.147Z,81.29
2024-01-17T10:34:11.229Z,81.18
2024-01-17T10:35:11.108Z,80.03
2024-01-17T10:36:11.054Z,80.20
2024-01-17T10:37:11.049Z,81.25
2024-01-17T10:38:11.019Z,80.76
2024-01-17T10:39:11.037Z,80.66
2024-01-17T10:40:11.106Z,80.03
2024-01-17T10:41:11.013Z,80.97
2024-01-17T10:42:11.010Z,81.46
2024-01-17T10:43:11.434Z,81.81
2024-01-17T10:44:10.975Z,81.46
2024-01-17T10:45:11.049Z,81.25
2024-01-17T10:46:10.989Z,80.83
2024-01-17T10:47:11.794Z,81.46
2024-01-17T10:48:12.075Z,80.73
2024-01-17T10:49:11.141Z,80.31
2024-01-17T10:50:10.977Z,80.93
2024-01-17T10:51:10.985Z,81.87
2024-01-17T10:52:10.947Z,81.56
2024-01-17T10:53:10.962Z,81.56
2024-01-17T10:54:10.985Z,80.90
2024-01-17T10:55:10.947Z,81.21
2024-01-17T10:56:10.944Z,81.73
2024-01-17T10:57:10.987Z,81.11
2024-01-17T10:58:10.964Z,81.21
2024-01-17T10:59:10.975Z,80.93
2024-01-17T11:00:10.995Z,81.07
2024-01-17T11:01:10.951Z,81.92
2024-01-17T11:02:10.910Z,82.23
2024-01-17T11:03:11.079Z,81.92
2024-01-17T11:04:10.984Z,82.40
2024-01-17T11:05:10.900Z,81.84
2024-01-17T11:06:10.912Z,81.52
2024-01-17T11:07:10.886Z,81.32
2024-01-17T11:08:10.906Z,81.46
2024-01-17T11:09:10.946Z,81.35
2024-01-17T11:10:10.894Z,82.26
2024-01-17T11:11:10.834Z,81.98
2024-01-17T11:12:11.928Z,81.56
2024-01-17T11:13:10.905Z,81.46
2024-01-17T11:14:10.874Z,81.87
2024-01-17T11:15:10.885Z,81.98
2024-01-17T11:16:10.861Z,81.84
2024-01-17T11:17:15.063Z,81.52
2024-01-17T11:18:11.888Z,81.84
2024-01-17T11:19:11.012Z,81.32
2024-01-17T11:20:10.846Z,81.00
2024-01-17T11:21:10.856Z,81.52
2024-01-17T11:22:10.797Z,80.90
2024-01-17T11:23:10.821Z,81.77
2024-01-17T11:24:10.955Z,81.32
2024-01-17T11:25:10.779Z,81.63
2024-01-17T11:26:10.814Z,82.26
2024-01-17T11:27:10.863Z,82.99
2024-01-17T11:28:10.801Z,82.57
2024-01-17T11:29:10.809Z,81.73
2024-01-17T11:30:10.827Z,81.67
2024-01-17T11:31:10.828Z,82.40
2024-01-17T11:32:10.801Z,82.60
2024-01-17T11:33:10.810Z,82.19
2024-01-17T11:34:10.874Z,82.67
2024-01-17T11:35:10.807Z,81.84
2024-01-17T11:36:10.813Z,81.00
2024-01-17T11:37:10.749Z,80.83
2024-01-17T11:38:10.735Z,81.63
2024-01-17T11:39:11.654Z,80.20
2024-01-17T11:40:10.767Z,81.98
2024-01-17T11:41:10.807Z,82.40
2024-01-17T11:42:10.729Z,81.67
2024-01-17T11:43:10.726Z,81.67
2024-01-17T11:44:10.721Z,81.98
2024-01-17T11:45:14.327Z,82.71
2024-01-17T11:46:10.905Z,83.09
2024-01-17T11:47:10.714Z,82.67
2024-01-17T11:48:10.726Z,82.29
2024-01-17T11:49:10.907Z,82.50
2024-01-17T11:50:10.672Z,83.13
2024-01-17T11:51:10.739Z,83.13
2024-01-17T11:52:10.702Z,81.87
2024-01-17T11:53:10.693Z,81.92
2024-01-17T11:54:10.684Z,84.32
2024-01-17T11:55:10.666Z,84.32
2024-01-17T11:56:10.778Z,84.74
2024-01-17T11:57:10.705Z,85.58
2024-01-17T11:58:10.659Z,85.47
2024-01-17T11:59:10.658Z,85.47
2024-01-17T12:00:10.702Z,85.47
2024-01-17T12:01:10.672Z,84.80
2024-01-17T12:02:10.713Z,84.95
2024-01-17T12:03:10.633Z,85.01
2024-01-17T12:04:10.619Z,85.53
2024-01-17T12:05:10.633Z,86.47
2024-01-17T12:06:10.710Z,85.96
2024-01-17T12:07:10.692Z,86.27
2024-01-17T12:08:10.694Z,86.37
2024-01-17T12:09:10.629Z,86.37
2024-01-17T12:10:10.586Z,87.17
2024-01-17T12:11:10.603Z,87.31
2024-01-17T12:12:10.596Z,87.27
2024-01-17T12:13:10.725Z,87.80
2024-01-17T12:14:10.580Z,87.27
2024-01-17T12:15:10.593Z,86.65
2024-01-17T12:16:10.601Z,85.71
2024-01-17T12:17:10.560Z,87.17
2024-01-17T12:18:10.641Z,87.38
2024-01-17T12:19:10.774Z,87.27
2024-01-17T12:20:10.564Z,87.59
2024-01-17T12:21:10.578Z,87.27
2024-01-17T12:22:10.556Z,86.92
2024-01-17T12:23:10.542Z,87.27
2024-01-17T12:24:10.595Z,87.48
2024-01-17T12:25:10.509Z,87.76
2024-01-17T12:26:10.545Z,87.48
2024-01-17T12:27:10.541Z,88.32
2024-01-17T12:28:10.521Z,88.42
2024-01-17T12:29:10.646Z,88.64
2024-01-17T12:30:10.543Z,88.42
2024-01-17T12:31:10.513Z,87.34
2024-01-17T12:32:10.513Z,87.65
2024-01-17T12:33:10.571Z,88.53
2024-01-17T12:34:10.708Z,88.64
2024-01-17T12:35:11.539Z,88.42
2024-01-17T12:36:10.606Z,89.05
2024-01-17T12:37:10.457Z,88.32
2024-01-17T12:38:10.483Z,88.59
2024-01-17T12:39:10.609Z,88.42
2024-01-17T12:40:10.482Z,88.32
2024-01-17T12:41:10.450Z,88.42
2024-01-17T12:42:10.521Z,88.84
2024-01-17T12:43:10.446Z,88.90
2024-01-17T12:44:10.466Z,89.11
2024-01-17T12:45:10.526Z,89.11
2024-01-17T12:46:10.432Z,89.22
2024-01-17T12:47:10.429Z,89.74
2024-01-17T12:48:10.500Z,89.64
2024-01-17T12:49:10.576Z,89.84
2024-01-17T12:50:10.415Z,89.74
2024-01-17T12:51:10.397Z,90.06
2024-01-17T12:52:10.423Z,89.28